createdAt,value
2018-08-09T00:00:11.722Z,2.30
2018-08-09T00:02:41.006Z,3.13
2018-08-09T00:05:10.053Z,2.50
2018-08-09T00:07:39.739Z,3.10
2018-08-09T00:10:08.705Z,2.07
2018-08-09T00:12:37.874Z,2.10
2018-08-09T00:15:07.350Z,3.20
2018-08-09T00:17:36.605Z,2.33
2018-08-09T00:20:06.464Z,2.20
2018-08-09T00:22:36.093Z,3.27
2018-08-09T00:25:05.784Z,2.97
2018-08-09T00:27:35.284Z,2.87
2018-08-09T00:30:05.234Z,2.37
2018-08-09T00:32:34.191Z,2.80
2018-08-09T00:35:03.126Z,2.50
2018-08-09T00:37:32.016Z,2.70
2018-08-09T00:40:00.929Z,2.57
2018-08-09T00:42:29.784Z,3.20
2018-08-09T00:44:58.946Z,2.60
2018-08-09T00:47:27.769Z,2.90
2018-08-09T00:49:56.650Z,2.50
2018-08-09T00:52:26.219Z,3.00
2018-08-09T00:54:55.206Z,2.83
2018-08-09T00:57:24.207Z,3.10
2018-08-09T00:59:52.982Z,2.50
2018-08-09T01:02:21.797Z,2.80
2018-08-09T01:04:50.653Z,2.13
2018-08-09T01:07:19.515Z,2.83
2018-08-09T01:09:48.439Z,2.40
2018-08-09T01:12:17.248Z,2.83
2018-08-09T01:14:46.136Z,2.50
2018-08-09T01:17:15.060Z,2.43
2018-08-09T01:19:44.033Z,2.50
2018-08-09T01:22:12.928Z,3.07
2018-08-09T01:24:42.148Z,2.23
2018-08-09T01:27:11.433Z,3.30
2018-08-09T01:29:41.049Z,2.60
2018-08-09T01:32:10.376Z,2.30
2018-08-09T01:34:39.291Z,2.93
2018-08-09T01:37:08.300Z,2.50
2018-08-09T01:39:37.188Z,3.17
2018-08-09T01:42:17.091Z,2.40
2018-08-09T01:44:46.193Z,2.93
2018-08-09T01:47:15.757Z,2.73
2018-08-09T01:49:44.497Z,2.57
2018-08-09T01:52:13.369Z,2.40
2018-08-09T01:54:42.213Z,3.20
2018-08-09T01:57:11.084Z,2.40
2018-08-09T01:59:39.845Z,3.33
2018-08-09T02:02:08.683Z,3.10
2018-08-09T02:04:37.576Z,3.13
2018-08-09T02:07:06.681Z,2.30
2018-08-09T02:09:35.621Z,2.37
2018-08-09T02:12:05.250Z,2.53
2018-08-09T02:14:34.135Z,3.27
2018-08-09T02:17:03.065Z,2.37
2018-08-09T02:19:32.009Z,2.47
2018-08-09T02:22:00.918Z,2.80
2018-08-09T02:24:29.872Z,3.00
2018-08-09T02:26:58.702Z,2.70
2018-08-09T02:29:27.532Z,1.93
2018-08-09T02:31:56.397Z,2.60
2018-08-09T02:34:25.341Z,1.90
2018-08-09T02:36:54.529Z,2.37
2018-08-09T02:39:23.397Z,2.97
2018-08-09T02:41:52.378Z,1.93
2018-08-09T02:44:21.251Z,2.07
2018-08-09T02:46:50.263Z,2.93
2018-08-09T02:49:19.224Z,2.47
2018-08-09T02:51:48.159Z,2.40
2018-08-09T02:54:17.127Z,2.50
2018-08-09T02:56:46.156Z,2.47
2018-08-09T02:59:15.074Z,2.43
2018-08-09T03:01:44.068Z,3.17
2018-08-09T03:04:13.151Z,2.80
2018-08-09T03:06:42.211Z,2.30
2018-08-09T03:09:13.091Z,3.07
2018-08-09T03:11:43.128Z,2.73
2018-08-09T03:14:12.022Z,2.60
2018-08-09T03:16:40.965Z,2.53
2018-08-09T03:19:09.803Z,3.10
2018-08-09T03:21:38.715Z,3.27
2018-08-09T03:24:07.565Z,3.27
2018-08-09T03:26:36.625Z,3.50
2018-08-09T03:29:05.801Z,3.87
2018-08-09T03:31:34.655Z,3.20
2018-08-09T03:34:03.509Z,3.57
2018-08-09T03:36:32.340Z,3.40
2018-08-09T03:39:01.031Z,3.33
2018-08-09T03:41:30.166Z,3.10
2018-08-09T03:44:00.173Z,2.97
2018-08-09T03:46:28.938Z,3.10
2018-08-09T03:48:57.856Z,3.70
2018-08-09T03:51:26.544Z,3.23
2018-08-09T03:53:55.443Z,4.20
2018-08-09T03:56:24.249Z,3.47
2018-08-09T03:58:53.013Z,3.60
2018-08-09T04:01:21.782Z,4.50
2018-08-09T04:03:50.573Z,4.40
2018-08-09T04:06:19.361Z,3.63
2018-08-09T04:08:48.242Z,3.97
2018-08-09T04:11:17.154Z,3.37
2018-08-09T04:13:46.038Z,4.00
2018-08-09T04:16:14.902Z,3.70
2018-08-09T04:18:43.668Z,3.27
2018-08-09T04:21:12.669Z,2.93
2018-08-09T04:23:41.912Z,3.83
2018-08-09T04:26:10.977Z,3.63
2018-08-09T04:28:39.949Z,3.40
2018-08-09T04:31:08.751Z,3.23
2018-08-09T04:33:37.585Z,3.50
2018-08-09T04:36:06.664Z,4.70
2018-08-09T04:38:35.490Z,3.90
2018-08-09T04:41:04.608Z,3.17
2018-08-09T04:43:33.390Z,2.90
2018-08-09T04:46:02.185Z,2.80
2018-08-09T04:48:31.704Z,3.07
2018-08-09T04:51:00.580Z,4.00
2018-08-09T04:53:29.403Z,3.63
2018-08-09T04:55:58.233Z,4.03
2018-08-09T04:58:27.126Z,3.63
2018-08-09T05:00:56.048Z,3.80
2018-08-09T05:03:24.886Z,3.90
2018-08-09T05:05:53.832Z,3.80
2018-08-09T05:08:22.770Z,3.67
2018-08-09T05:10:51.606Z,3.93
2018-08-09T05:13:20.444Z,3.53
2018-08-09T05:15:49.359Z,3.90
2018-08-09T05:18:18.473Z,3.50
2018-08-09T05:20:47.275Z,3.70
2018-08-09T05:23:16.466Z,4.23
2018-08-09T05:25:45.331Z,4.37
2018-08-09T05:28:14.163Z,3.70
2018-08-09T05:30:42.985Z,3.80
2018-08-09T05:33:11.797Z,2.53
2018-08-09T05:35:41.033Z,3.60
2018-08-09T05:38:10.020Z,3.50
2018-08-09T05:40:39.045Z,4.70
2018-08-09T05:43:07.918Z,4.13
2018-08-09T05:45:36.700Z,3.43
2018-08-09T05:48:06.105Z,3.50
2018-08-09T05:50:35.310Z,4.20
2018-08-09T05:53:04.252Z,4.00
2018-08-09T05:55:33.171Z,4.10
2018-08-09T05:58:01.763Z,4.23
2018-08-09T06:00:30.626Z,3.80
2018-08-09T06:02:59.635Z,4.33
2018-08-09T06:05:28.549Z,4.23
2018-08-09T06:07:57.922Z,4.00
2018-08-09T06:10:26.903Z,4.40
2018-08-09T06:12:55.834Z,4.50
2018-08-09T06:15:24.818Z,3.67
2018-08-09T06:17:53.842Z,4.53
2018-08-09T06:20:22.919Z,5.80
2018-08-09T06:22:51.908Z,4.30
2018-08-09T06:25:20.898Z,4.50
2018-08-09T06:27:49.913Z,5.37
2018-08-09T06:30:18.814Z,4.63
2018-08-09T06:32:47.772Z,4.30
2018-08-09T06:35:16.860Z,4.47
2018-08-09T06:37:51.206Z,4.30
2018-08-09T06:40:20.088Z,5.23
2018-08-09T06:42:49.607Z,5.47
2018-08-09T06:45:18.562Z,6.17
2018-08-09T06:47:48.146Z,5.27
2018-08-09T06:50:17.161Z,5.87
2018-08-09T06:52:46.123Z,5.33
2018-08-09T06:55:15.025Z,4.90
2018-08-09T06:57:45.901Z,4.90
2018-08-09T07:00:15.690Z,5.27
2018-08-09T07:02:45.017Z,4.80
2018-08-09T07:05:13.974Z,5.37
2018-08-09T07:07:42.866Z,5.13
2018-08-09T07:10:11.917Z,6.00
2018-08-09T07:12:41.136Z,5.70
2018-08-09T07:15:12.833Z,5.37
2018-08-09T07:17:42.033Z,5.53
2018-08-09T07:20:11.357Z,5.80
2018-08-09T07:22:41.484Z,6.23
2018-08-09T07:25:10.961Z,5.90
2018-08-09T07:27:41.141Z,6.00
2018-08-09T07:30:12.097Z,7.10
2018-08-09T07:32:41.176Z,5.87
2018-08-09T07:35:11.017Z,6.10
2018-08-09T07:37:39.973Z,5.30
2018-08-09T07:40:11.374Z,7.43
2018-08-09T07:42:40.819Z,6.33
2018-08-09T07:45:11.531Z,6.53
2018-08-09T07:47:40.776Z,7.03
2018-08-09T07:50:10.665Z,6.80
2018-08-09T07:52:39.711Z,7.63
2018-08-09T07:55:10.015Z,7.87
2018-08-09T07:57:40.044Z,7.70
2018-08-09T08:00:11.245Z,7.63
2018-08-09T08:02:40.858Z,6.60
2018-08-09T08:05:10.314Z,6.83
2018-08-09T08:07:39.521Z,7.40
2018-08-09T08:10:10.265Z,7.40
2018-08-09T08:12:39.671Z,7.30
2018-08-09T08:15:09.864Z,7.87
2018-08-09T08:17:39.020Z,7.37
2018-08-09T08:20:08.594Z,7.33
2018-08-09T08:22:37.679Z,7.50
2018-08-09T08:25:07.098Z,5.97
2018-08-09T08:27:36.065Z,8.17
2018-08-09T08:30:12.458Z,7.27
2018-08-09T08:32:41.891Z,7.10
2018-08-09T08:35:10.945Z,7.50
2018-08-09T08:37:41.474Z,6.60
2018-08-09T08:40:11.293Z,6.27
2018-08-09T08:42:45.307Z,6.60
2018-08-09T08:45:15.288Z,6.50
2018-08-09T08:47:44.915Z,7.23
2018-08-09T08:50:15.535Z,6.63
2018-08-09T08:52:44.535Z,7.47
2018-08-09T08:55:13.640Z,6.30
2018-08-09T08:57:42.679Z,6.50
2018-08-09T09:00:12.525Z,7.27
2018-08-09T09:02:41.412Z,6.83
2018-08-09T09:05:12.218Z,7.53
2018-08-09T09:07:41.045Z,6.90
2018-08-09T09:10:12.033Z,6.63
2018-08-09T09:12:41.552Z,7.43
2018-08-09T09:15:13.334Z,7.10
2018-08-09T09:17:44.515Z,6.90
2018-08-09T09:20:15.909Z,6.90
2018-08-09T09:22:45.523Z,7.83
2018-08-09T09:25:15.741Z,7.83
2018-08-09T09:27:46.287Z,7.50
2018-08-09T09:30:16.583Z,8.50
2018-08-09T09:32:46.196Z,8.03
2018-08-09T09:35:15.059Z,8.67
2018-08-09T09:37:44.059Z,9.43
2018-08-09T09:40:12.909Z,8.50
2018-08-09T09:42:43.645Z,8.30
2018-08-09T09:45:12.761Z,10.53
2018-08-09T09:47:41.989Z,7.30
2018-08-09T09:50:13.415Z,8.67
2018-08-09T09:52:43.134Z,8.73
2018-08-09T09:55:12.304Z,8.40
2018-08-09T09:57:43.448Z,8.17
2018-08-09T10:00:17.548Z,9.10
2018-08-09T10:02:46.636Z,9.20
2018-08-09T10:05:16.481Z,8.00
2018-08-09T10:07:54.616Z,8.73
2018-08-09T10:10:29.267Z,9.10
2018-08-09T10:13:00.729Z,8.63
2018-08-09T10:15:29.731Z,9.33
2018-08-09T10:17:59.672Z,8.90
2018-08-09T10:20:28.746Z,9.07
2018-08-09T10:22:57.786Z,9.37
2018-08-09T10:25:30.534Z,7.20
2018-08-09T10:27:59.972Z,8.27
2018-08-09T10:30:29.382Z,10.07
2018-08-09T10:32:58.622Z,7.60
2018-08-09T10:35:27.775Z,9.77
2018-08-09T10:37:57.087Z,8.90
2018-08-09T10:40:26.136Z,7.93
2018-08-09T10:42:57.854Z,8.37
2018-08-09T10:45:26.833Z,8.30
2018-08-09T10:47:55.577Z,8.73
2018-08-09T10:50:24.521Z,8.67
2018-08-09T10:52:55.355Z,9.43
2018-08-09T10:55:24.539Z,8.77
2018-08-09T10:57:53.289Z,8.33
2018-08-09T11:00:22.323Z,7.97
2018-08-09T11:02:51.323Z,7.10
2018-08-09T11:05:20.621Z,8.10
2018-08-09T11:07:49.939Z,8.03
2018-08-09T11:10:19.120Z,7.80
2018-08-09T11:12:48.458Z,8.10
2018-08-09T11:15:17.639Z,7.50
2018-08-09T11:17:46.764Z,6.97
2018-08-09T11:20:22.067Z,7.50
2018-08-09T11:22:51.877Z,8.93
2018-08-09T11:25:21.178Z,8.20
2018-08-09T11:27:52.262Z,8.67
2018-08-09T11:30:22.735Z,8.53
2018-08-09T11:32:51.901Z,7.47
2018-08-09T11:35:21.748Z,7.37
2018-08-09T11:37:50.953Z,8.00
2018-08-09T11:40:19.986Z,8.17
2018-08-09T11:42:49.226Z,8.50
2018-08-09T11:45:18.453Z,8.60
2018-08-09T11:47:47.531Z,8.00
2018-08-09T11:50:16.687Z,8.27
2018-08-09T11:52:46.566Z,7.87
2018-08-09T11:55:15.823Z,6.80
2018-08-09T11:57:44.999Z,8.23
2018-08-09T12:00:14.208Z,7.07
2018-08-09T12:02:43.307Z,6.70
2018-08-09T12:05:12.631Z,6.57
2018-08-09T12:07:41.908Z,6.97
2018-08-09T12:16:07.241Z,6.67
2018-08-09T12:21:36.902Z,6.50
2018-08-09T12:27:11.559Z,6.93
2018-08-09T12:29:47.977Z,7.67
2018-08-09T12:32:18.973Z,7.07
2018-08-09T12:39:50.459Z,7.43
2018-08-09T12:42:19.428Z,7.23
2018-08-09T12:44:48.761Z,8.57
2018-08-09T12:47:17.569Z,8.30
2018-08-09T12:49:46.302Z,8.80
2018-08-09T12:52:15.133Z,7.70
2018-08-09T12:54:44.093Z,7.13
2018-08-09T12:57:12.855Z,6.60
2018-08-09T12:59:41.754Z,5.90
2018-08-09T13:02:10.845Z,6.17
2018-08-09T13:04:39.624Z,3.70
2018-08-09T13:07:08.346Z,4.67
2018-08-09T13:09:37.446Z,5.20
2018-08-09T13:12:06.103Z,4.70
2018-08-09T13:14:35.228Z,6.70
2018-08-09T13:17:04.321Z,7.20
2018-08-09T13:19:33.608Z,6.77
2018-08-09T13:22:03.183Z,6.70
2018-08-09T13:24:32.826Z,5.17
2018-08-09T13:27:03.467Z,4.10
2018-08-09T13:29:32.793Z,4.60
2018-08-09T13:32:03.958Z,4.97
2018-08-09T13:34:33.931Z,5.10
2018-08-09T13:37:03.067Z,5.30
2018-08-09T13:39:31.954Z,4.10
2018-08-09T13:42:00.847Z,5.10
2018-08-09T13:44:29.781Z,5.00
2018-08-09T13:46:58.673Z,4.13
2018-08-09T13:49:28.255Z,5.27
2018-08-09T13:51:57.850Z,3.70
2018-08-09T13:54:26.995Z,4.77
2018-08-09T13:56:56.685Z,3.90
2018-08-09T13:59:25.503Z,2.63
2018-08-09T14:01:57.139Z,3.07
2018-08-09T14:04:26.149Z,4.17
2018-08-09T14:06:54.781Z,2.50
2018-08-09T14:09:25.169Z,2.90
2018-08-09T14:11:53.913Z,3.47
2018-08-09T14:14:22.783Z,2.67
2018-08-09T14:16:51.836Z,4.93
2018-08-09T14:19:20.594Z,2.27
2018-08-09T14:21:49.254Z,2.90
2018-08-09T14:24:18.099Z,2.90
2018-08-09T14:26:46.894Z,2.60
2018-08-09T14:29:15.770Z,3.53
2018-08-09T14:31:45.218Z,3.63
2018-08-09T14:34:14.501Z,2.70
2018-08-09T14:36:43.415Z,1.40
2018-08-09T14:39:11.975Z,1.60
2018-08-09T14:41:43.765Z,2.33
2018-08-09T14:44:12.503Z,3.67
2018-08-09T14:46:41.462Z,1.77
2018-08-09T14:49:12.298Z,2.77
2018-08-09T14:51:41.190Z,2.60
2018-08-09T14:54:10.150Z,2.67
2018-08-09T14:56:38.916Z,2.03
2018-08-09T14:59:07.736Z,3.00
2018-08-09T15:01:36.534Z,2.77
2018-08-09T15:04:05.683Z,2.80
2018-08-09T15:06:34.439Z,2.60
2018-08-09T15:09:03.150Z,1.90
2018-08-09T15:11:35.566Z,2.43
2018-08-09T15:14:06.276Z,3.40
2018-08-09T15:16:35.597Z,2.90
2018-08-09T15:19:05.324Z,2.97
2018-08-09T15:21:34.493Z,2.07
2018-08-09T15:24:03.787Z,1.83
2018-08-09T15:26:32.678Z,1.70
2018-08-09T15:29:01.963Z,2.20
2018-08-09T15:31:32.039Z,2.23
2018-08-09T15:34:01.240Z,4.07
2018-08-09T15:36:30.937Z,1.83
2018-08-09T15:39:02.707Z,3.30
2018-08-09T15:41:32.065Z,2.27
2018-08-09T15:44:01.138Z,2.10
2018-08-09T15:46:31.980Z,1.87
2018-08-09T15:49:02.967Z,2.13
2018-08-09T15:51:33.002Z,1.80
2018-08-09T15:54:02.642Z,2.67
2018-08-09T15:56:34.641Z,2.13
2018-08-09T15:59:03.829Z,2.20
2018-08-09T16:01:33.132Z,2.00
2018-08-09T16:04:02.763Z,1.00
2018-08-09T16:06:32.298Z,2.27
2018-08-09T16:09:02.926Z,2.00
2018-08-09T16:11:34.136Z,2.33
2018-08-09T16:14:03.780Z,2.23
2018-08-09T16:16:33.545Z,2.27
2018-08-09T16:19:04.707Z,2.17
2018-08-09T16:21:34.582Z,1.70
2018-08-09T16:24:04.395Z,1.83
2018-08-09T16:26:33.826Z,1.93
2018-08-09T16:29:03.463Z,1.83
2018-08-09T16:31:32.649Z,2.43
2018-08-09T16:34:03.495Z,2.30
2018-08-09T16:36:33.112Z,2.00
2018-08-09T16:39:25.789Z,2.30
2018-08-09T16:41:55.763Z,1.80
2018-08-09T16:44:43.591Z,2.40
2018-08-09T16:47:21.155Z,2.20
2018-08-09T16:49:50.662Z,1.60
2018-08-09T16:55:26.939Z,1.67
2018-08-09T16:57:55.800Z,2.00
2018-08-09T17:00:25.170Z,2.40
2018-08-09T17:02:54.849Z,1.83
2018-08-09T17:05:24.573Z,2.03
2018-08-09T17:08:10.980Z,2.17
2018-08-09T17:10:39.677Z,1.73
2018-08-09T17:13:08.364Z,2.20
2018-08-09T17:15:38.131Z,2.00
2018-08-09T17:18:07.041Z,1.60
2018-08-09T17:20:36.533Z,2.43
2018-08-09T17:23:05.369Z,3.17
2018-08-09T17:25:41.797Z,3.00
2018-08-09T17:28:10.587Z,2.43
2018-08-09T17:30:42.750Z,2.60
2018-08-09T17:33:11.697Z,2.10
2018-08-09T17:35:40.473Z,2.57
2018-08-09T17:38:09.615Z,2.30
2018-08-09T17:40:39.185Z,2.00
2018-08-09T17:43:07.999Z,2.90
2018-08-09T17:45:36.811Z,3.43
2018-08-09T17:48:05.640Z,3.20
2018-08-09T17:50:34.701Z,3.10
2018-08-09T17:53:04.214Z,2.50
2018-08-09T17:55:33.676Z,3.10
2018-08-09T17:58:03.287Z,3.47
2018-08-09T18:00:33.355Z,1.63
2018-08-09T18:03:02.453Z,2.27
2018-08-09T18:05:32.042Z,1.73
2018-08-09T18:10:38.699Z,2.03
2018-08-09T18:13:07.786Z,2.20
2018-08-09T18:15:37.188Z,2.30
2018-08-09T18:18:08.434Z,2.63
2018-08-09T18:20:39.624Z,1.80
2018-08-09T18:25:52.194Z,1.93
2018-08-09T18:28:21.032Z,2.90
2018-08-09T18:33:47.951Z,2.03
2018-08-09T18:36:17.077Z,2.37
2018-08-09T18:38:46.067Z,2.27
2018-08-09T18:41:21.917Z,2.57
2018-08-09T18:43:51.021Z,2.33
2018-08-09T18:46:23.016Z,2.30
2018-08-09T18:48:54.050Z,2.10
2018-08-09T18:51:22.668Z,3.30
2018-08-09T18:53:51.847Z,2.90
2018-08-09T18:56:20.809Z,2.83
2018-08-09T18:58:52.867Z,2.97
2018-08-09T19:01:28.959Z,2.60
2018-08-09T19:03:57.742Z,2.77
2018-08-09T19:06:48.746Z,3.07
2018-08-09T19:09:18.495Z,4.23
2018-08-09T19:11:47.643Z,3.30
2018-08-09T19:14:16.724Z,2.80
2018-08-09T19:16:46.097Z,2.53
2018-08-09T19:19:15.625Z,3.17
2018-08-09T19:21:44.840Z,4.10
2018-08-09T19:27:29.494Z,2.73
2018-08-09T19:29:58.456Z,3.83
2018-08-09T19:32:27.640Z,3.00
2018-08-09T19:34:56.721Z,2.80
2018-08-09T19:37:35.750Z,3.90
2018-08-09T19:40:13.376Z,3.67
2018-08-09T19:45:44.868Z,4.20
2018-08-09T19:48:21.157Z,2.50
2018-08-09T19:50:55.784Z,3.10
2018-08-09T19:53:31.828Z,2.70
2018-08-09T19:56:00.902Z,2.97
2018-08-09T19:58:29.881Z,1.50
2018-08-09T20:00:59.465Z,2.80
2018-08-09T20:03:34.309Z,2.03
2018-08-09T20:06:10.880Z,1.80
2018-08-09T20:08:39.752Z,0.80
2018-08-09T20:11:08.832Z,1.60
2018-08-09T20:13:39.169Z,1.37
2018-08-09T20:16:08.496Z,1.23
2018-08-09T20:18:37.831Z,0.93
2018-08-09T20:21:07.438Z,1.30
2018-08-09T20:23:41.166Z,1.13
2018-08-09T20:26:10.746Z,0.97
2018-08-09T20:28:43.937Z,1.13
2018-08-09T20:31:20.458Z,0.70
2018-08-09T20:33:52.255Z,1.00
2018-08-09T20:36:21.036Z,1.03
2018-08-09T20:38:50.056Z,1.00
2018-08-09T20:41:20.365Z,1.20
2018-08-09T20:43:52.277Z,1.00
2018-08-09T20:46:34.203Z,1.20
2018-08-09T20:49:05.181Z,0.90
2018-08-09T20:51:37.393Z,0.90
2018-08-09T20:54:17.425Z,1.30
2018-08-09T20:56:50.794Z,0.73
2018-08-09T20:59:21.465Z,0.80
2018-08-09T21:01:50.510Z,1.10
2018-08-09T21:04:24.209Z,1.13
2018-08-09T21:09:47.184Z,1.10
2018-08-09T21:12:18.933Z,1.00
2018-08-09T21:17:41.887Z,0.73
2018-08-09T21:20:12.353Z,1.10
2018-08-09T21:22:41.305Z,1.43
2018-08-09T21:25:20.112Z,1.33
2018-08-09T21:27:50.746Z,1.53
2018-08-09T21:30:26.401Z,1.80
2018-08-09T21:32:55.318Z,1.50
2018-08-09T21:35:24.043Z,2.10
2018-08-09T21:38:01.603Z,1.47
2018-08-09T21:40:30.936Z,1.93
2018-08-09T21:43:00.009Z,1.70
2018-08-09T21:45:28.962Z,2.30
2018-08-09T21:47:58.036Z,2.00
2018-08-09T21:50:27.361Z,2.13
2018-08-09T21:52:56.182Z,2.67
2018-08-09T21:55:27.179Z,2.07
2018-08-09T21:57:56.784Z,2.17
2018-08-09T22:01:00.915Z,1.17
2018-08-09T22:13:11.617Z,2.50
2018-08-09T22:15:53.964Z,1.87
2018-08-09T22:18:29.220Z,1.90
2018-08-09T22:21:03.881Z,2.13
2018-08-09T22:26:31.013Z,1.87
2018-08-09T22:29:01.114Z,1.47
2018-08-09T22:31:30.457Z,2.00
2018-08-09T22:34:00.526Z,1.70
2018-08-09T22:36:48.698Z,2.20
2018-08-09T22:39:44.681Z,2.00
2018-08-09T22:45:19.051Z,1.70
2018-08-09T22:47:48.560Z,1.97
2018-08-09T22:50:30.706Z,2.47
2018-08-09T22:53:00.307Z,2.10
2018-08-09T22:56:31.068Z,3.27
2018-08-09T22:59:02.176Z,3.10
2018-08-09T23:01:39.049Z,2.60
2018-08-09T23:07:05.418Z,3.67
2018-08-09T23:09:34.993Z,3.77
2018-08-09T23:12:23.422Z,3.73
2018-08-09T23:14:52.777Z,4.30
2018-08-09T23:17:21.805Z,3.67
2018-08-09T23:19:57.744Z,4.73
2018-08-09T23:22:26.677Z,4.33
2018-08-09T23:24:55.582Z,4.37
2018-08-09T23:27:24.662Z,4.00
2018-08-09T23:29:54.922Z,5.97
2018-08-09T23:32:26.323Z,4.57
2018-08-09T23:34:56.143Z,5.00
2018-08-09T23:37:25.399Z,4.27
2018-08-09T23:39:55.828Z,4.10
2018-08-09T23:45:25.953Z,4.10
2018-08-09T23:47:55.249Z,4.13
2018-08-09T23:50:24.158Z,3.40
2018-08-09T23:53:55.069Z,3.60
2018-08-09T23:56:26.948Z,3.93
2018-08-09T23:58:58.196Z,3.67
